Latest Weather Observations for Nowra

IDN60901

Issued at 6:31 am EST Monday 6 April 2020 (issued every 10 minutes, with the page automatically refreshed every 10 minutes)

About weather observations | Map of Canberra area stations | Latest observations for Canberra area | Other Formats
Station Details ID: 068072 Name: NOWRA RAN AIR STATION AWS Lat: -34.95 Lon: 150.54 Height: 109.0 m
Data from the previous 72 hours. | See also: Recent months at Nowra
Date/Time
EST
Temp
°C
App
Temp
°C
Dew
Point
°C
Rel
Hum
%
Delta-T
°C
Wind Press
QNH
hPa
Press
MSL
hPa
Rain since
9am
mm
Dir  Spd
km/h
Gust
km/h
Spd
kts
Gust
kts
06/06:00am 15.1 11.4 9.5 69 2.9 WNW 19 26 10 14 1016.3 1016.1 0.0
06/05:30am 15.3 11.9 9.0 66 3.2 W 17 22 9 12 1015.6 1015.4 0.0
06/05:00am 15.6 11.7 8.8 64 3.5 WNW 19 24 10 13 1015.1 1014.9 0.0
06/04:30am 16.1 10.9 8.8 62 3.8 WNW 26 35 14 19 1014.5 1014.2 0.0
06/04:27am 16.2 11.0 8.9 62 3.8 WNW 26 35 14 19 1014.5 1014.2 0.0
06/04:00am 15.1 12.6 8.1 63 3.5 WNW 11 15 6 8 1014.3 1014.0 0.0
06/03:30am 16.7 11.4 8.4 58 4.3 WNW 26 41 14 22 1014.0 1013.7 0.0
06/03:00am 16.3 13.0 8.0 58 4.2 W 15 22 8 12 1014.0 1013.7 0.0
06/02:30am 16.5 13.1 7.7 56 4.4 WNW 15 26 8 14 1013.9 1013.6 0.0
06/02:00am 16.7 12.3 7.6 55 4.6 W 20 35 11 19 1013.9 1013.6 0.0
06/01:30am 16.8 12.0 7.4 54 4.7 WNW 22 37 12 20 1014.1 1013.8 0.0
06/01:00am 16.9 12.6 7.0 52 4.9 WNW 19 35 10 19 1014.4 1014.1 0.0
06/12:30am 16.6 12.0 6.7 52 4.9 NW 20 39 11 21 1014.3 1014.0 0.0
06/12:00am 16.9 12.0 6.7 51 5.1 WNW 22 39 12 21 1014.3 1014.0 0.0
 
Date/Time
EST
Temp
°C
App
Temp
°C
Dew
Point
°C
Rel
Hum
%
Delta-T
°C
Wind Press
QNH
hPa
Press
MSL
hPa
Rain since
9am
mm
Dir  Spd
km/h
Gust
km/h
Spd
kts
Gust
kts
05/11:30pm 16.2 13.3 6.3 52 4.8 NW 11 22 6 12 1014.4 1014.1 0.0
05/11:00pm 16.6 11.6 6.4 51 5.0 WNW 22 30 12 16 1014.5 1014.2 0.0
05/10:30pm 16.9 11.5 6.4 50 5.2 WNW 24 35 13 19 1014.7 1014.4 0.0
05/10:00pm 16.7 10.9 6.2 50 5.1 WNW 26 35 14 19 1014.5 1014.2 0.0
05/09:30pm 16.7 12.0 6.2 50 5.1 WNW 20 28 11 15 1014.5 1014.2 0.0
05/09:00pm 17.0 11.9 5.9 48 5.4 WNW 22 41 12 22 1014.7 1014.4 0.0
05/08:30pm 16.8 11.7 6.0 49 5.3 WNW 22 33 12 18 1014.5 1014.2 0.0
05/08:00pm 16.9 11.4 6.1 49 5.3 W 24 37 13 20 1014.4 1014.1 0.0
05/07:30pm 17.0 11.2 6.2 49 5.3 WNW 26 39 14 21 1013.9 1013.6 0.0
05/07:06pm 17.2 11.0 6.1 48 5.5 WNW 28 46 15 25 1013.5 1013.2 0.0
05/07:00pm 17.0 11.6 6.2 49 5.3 W 24 35 13 19 1013.5 1013.2 0.0
05/06:47pm 17.4 10.7 5.7 46 5.7 WNW 30 48 16 26 1013.3 1013.0 0.0
05/06:30pm 17.2 11.6 5.5 46 5.7 WNW 24 37 13 20 1013.1 1012.8 0.0
05/06:15pm 17.3 11.0 5.6 46 5.7 WNW 28 46 15 25 1013.0 1012.7 0.0
05/06:00pm 17.8 10.0 5.1 43 6.1 WNW 35 50 19 27 1012.8 1012.5 0.0
05/05:41pm 17.8 11.0 5.1 43 6.1 WNW 30 48 16 26 1012.5 1012.3 0.0
05/05:30pm 18.2 11.3 4.7 41 6.5 WNW 30 39 16 21 1012.2 1012.0 0.0
05/05:00pm 18.8 11.0 4.9 40 6.7 W 35 54 19 29 1011.9 1011.7 0.0
05/04:52pm 19.1 12.6 4.8 39 6.9 WNW 28 54 15 29 1011.8 1011.6 0.0
05/04:30pm 19.2 12.4 4.9 39 7.0 W 30 41 16 22 1011.5 1011.3 0.0
05/04:00pm 19.5 13.1 5.2 39 7.0 W 28 41 15 22 1011.3 1011.1 0.0
05/03:31pm 19.6 13.1 4.9 38 7.2 WNW 28 46 15 25 1011.1 1010.9 0.0
05/03:30pm 19.5 13.4 4.8 38 7.2 WNW 26 46 14 25 1011.1 1010.9 0.0
05/03:03pm 19.5 12.0 4.4 37 7.3 WNW 33 56 18 30 1011.1 1010.9 0.0
05/03:00pm 19.6 12.7 4.5 37 7.3 WNW 30 44 16 24 1011.0 1010.8 0.0
05/02:30pm 20.1 12.8 4.6 36 7.5 WNW 32 52 17 28 1010.8 1010.6 0.0
05/02:17pm 19.8 12.4 3.9 35 7.6 WNW 32 54 17 29 1010.8 1010.6 0.0
05/02:00pm 20.0 12.1 4.5 36 7.5 WNW 35 50 19 27 1010.9 1010.7 0.0
05/01:36pm 20.3 12.4 4.4 35 7.7 W 35 57 19 31 1010.5 1010.3 0.0
05/01:30pm 20.4 12.8 4.0 34 7.9 WNW 33 46 18 25 1010.5 1010.3 0.0
05/01:00pm 20.1 10.7 4.2 35 7.7 WNW 43 61 23 33 1010.4 1010.2 0.0
05/12:30pm 20.0 11.4 4.9 37 7.4 W 39 61 21 33 1010.6 1010.4 0.0
05/12:09pm 19.6 12.1 4.5 37 7.3 WNW 33 54 18 29 1011.2 1011.0 0.0
05/12:00pm 19.9 12.5 4.8 37 7.4 WNW 33 46 18 25 1011.3 1011.1 0.0
05/11:38am 19.5 11.3 4.8 38 7.2 NW 37 56 20 30 1011.6 1011.4 0.0
05/11:30am 19.5 11.7 4.8 38 7.2 WNW 35 50 19 27 1011.6 1011.4 0.0
05/11:00am 19.1 11.6 4.5 38 7.0 WNW 33 52 18 28 1011.9 1011.7 0.0
05/10:52am 19.7 12.9 5.0 38 7.2 WNW 30 48 16 26 1011.8 1011.6 0.0
05/10:30am 18.4 9.8 4.9 41 6.5 WNW 39 54 21 29 1011.8 1011.6 0.0
05/10:26am 18.3 10.6 5.2 42 6.4 WNW 35 54 19 29 1011.8 1011.6 0.0
05/10:00am 18.0 9.5 5.2 43 6.2 WNW 39 56 21 30 1012.1 1011.9 0.0
05/09:30am 17.2 10.0 4.9 44 5.9 WNW 32 52 17 28 1012.1 1011.9 0.0
05/09:10am 16.5 8.3 4.5 45 5.7 WNW 37 57 20 31 1012.4 1012.2 0.0
05/09:00am 16.5 8.0 5.2 47 5.4 WNW 39 54 21 29 1012.5 1012.3 0.0
05/08:31am 15.8 6.7 5.7 51 4.9 WNW 43 61 23 33 1012.1 1011.9 0.0
05/08:30am 15.6 6.2 5.2 50 5.0 WNW 44 61 24 33 1012.1 1011.9 0.0
05/08:12am 15.6 8.0 5.8 52 4.7 WNW 35 54 19 29 1012.1 1011.9 0.0
05/08:00am 15.2 7.9 5.4 52 4.7 WNW 33 50 18 27 1012.2 1012.0 0.0
05/07:30am 14.9 8.2 5.4 53 4.5 WNW 30 46 16 25 1012.0 1011.8 0.0
05/07:00am 14.7 9.2 5.8 55 4.3 WNW 24 39 13 21 1011.6 1011.4 0.0
05/06:30am 14.2 9.4 5.8 57 4.0 WNW 20 35 11 19 1011.1 1010.9 0.0
05/06:00am 14.0 9.8 5.9 58 3.9 NW 17 32 9 17 1010.8 1010.6 0.0
05/05:30am 14.0 9.5 6.1 59 3.8 NW 19 37 10 20 1010.7 1010.5 0.0
05/05:00am 14.0 9.0 6.4 60 3.7 NW 22 37 12 20 1009.9 1009.7 0.0
05/04:30am 14.0 7.8 6.1 59 3.8 NW 28 41 15 22 1009.4 1009.2 0.0
05/04:00am 13.8 9.4 6.4 61 3.6 NW 19 30 10 16 1009.6 1009.4 0.0
05/03:30am 13.8 10.1 6.4 61 3.6 NW 15 20 8 11 1009.6 1009.4 0.0
05/03:00am 14.3 9.9 6.4 59 3.8 WNW 19 33 10 18 1009.3 1009.1 0.0
05/03:30am 14.6 9.9 6.2 57 4.1 WNW 20 32 11 17 1009.3 1009.1 0.0
05/03:00am 14.7 9.3 6.3 57 4.1 WNW 24 39 13 21 1009.9 1009.7 0.0
05/02:30am 15.0 10.2 5.5 53 4.5 WNW 20 35 11 19 1009.5 1009.3 0.0
05/02:00am 14.8 10.1 6.1 56 4.2 WNW 20 35 11 19 1009.2 1009.0 0.0
05/01:30am 15.2 9.8 6.2 55 4.4 W 24 43 13 23 1009.1 1008.9 0.0
05/01:00am 15.5 10.9 5.7 52 4.7 NW 19 30 10 16 1008.5 1008.3 0.0
05/12:32am 16.0 9.4 5.9 51 4.9 W 30 48 16 26 1008.4 1008.2 0.0
05/12:30am 16.1 9.0 5.7 50 5.0 WNW 32 48 17 26 1008.4 1008.2 0.0
05/12:00am 16.3 10.1 6.2 51 5.0 W 28 50 15 27 1008.1 1007.9 0.0
 
Date/Time
EST
Temp
°C
App
Temp
°C
Dew
Point
°C
Rel
Hum
%
Delta-T
°C
Wind Press
QNH
hPa
Press
MSL
hPa
Rain since
9am
mm
Dir  Spd
km/h
Gust
km/h
Spd
kts
Gust
kts
04/11:30pm 16.4 9.7 5.4 48 5.3 WNW 30 48 16 26 1007.7 1007.5 0.0
04/11:02pm 16.6 9.1 4.6 45 5.7 WNW 33 52 18 28 1007.0 1006.8 0.0
04/11:00pm 16.5 9.1 4.9 46 5.5 WNW 33 44 18 24 1007.0 1006.8 0.0
04/10:33pm 16.7 8.0 4.1 43 5.9 WNW 39 57 21 31 1006.7 1006.5 0.0
04/10:30pm 16.8 8.2 4.5 44 5.8 WNW 39 56 21 30 1006.6 1006.3 0.0
04/10:00pm 16.7 8.3 3.7 42 6.1 W 37 56 20 30 1005.8 1005.5 0.0
04/09:30pm 17.1 7.4 3.8 41 6.2 WNW 44 65 24 35 1005.2 1004.9 0.0
04/09:00pm 17.2 7.9 5.2 45 5.8 WNW 43 61 23 33 1004.9 1004.6 0.0
04/08:30pm 17.6 8.3 5.9 46 5.7 WNW 44 70 24 38 1004.7 1004.4 0.0
04/08:00pm 17.7 9.8 6.3 47 5.7 WNW 37 56 20 30 1004.2 1003.9 0.0
04/07:30pm 17.9 9.6 6.1 46 5.8 WNW 39 57 21 31 1003.8 1003.5 0.0
04/07:21pm 18.2 8.1 5.8 44 6.1 WNW 48 72 26 39 1003.6 1003.3 0.0
04/07:19pm 18.3 8.2 5.8 44 6.1 WNW 48 72 26 39 1003.7 1003.4 0.0
04/07:00pm 18.1 10.4 6.9 48 5.7 WNW 37 57 20 31 1003.3 1003.0 0.0
04/06:30pm 18.5 9.9 6.4 45 6.0 WNW 41 59 22 32 1002.7 1002.5 0.0
04/06:00pm 19.5 10.8 5.9 41 6.8 WNW 41 67 22 36 1002.3 1002.1 0.0
04/05:30pm 20.1 11.7 5.7 39 7.2 WNW 39 61 21 33 1001.5 1001.3 0.0
04/05:01pm 20.6 12.2 5.4 37 7.5 WNW 39 61 21 33 1000.9 1000.7 0.0
04/05:00pm 20.9 12.5 5.7 37 7.6 WNW 39 56 21 30 1000.8 1000.6 0.0
04/04:30pm 21.0 11.5 5.0 35 7.9 WNW 44 80 24 43 1000.1 999.9 0.0
04/04:00pm 21.6 11.1 5.5 35 8.1 WNW 50 82 27 44 999.5 999.3 0.0
04/03:30pm 21.8 10.9 5.3 34 8.2 WNW 52 91 28 49 998.5 998.3 0.0
04/03:00pm 21.8 11.7 5.7 35 8.2 WNW 48 76 26 41 998.3 998.0 0.0
04/02:30pm 21.7 9.9 5.6 35 8.1 WNW 57 82 31 44 997.7 997.4 0.0
04/02:00pm 21.5 10.4 6.2 37 7.8 WNW 54 82 29 44 997.5 997.2 0.0
04/01:30pm 21.0 10.6 7.6 42 6.9 WNW 52 80 28 43 997.8 997.5 0.0
04/01:00pm 21.0 10.9 7.3 41 7.1 WNW 50 74 27 40 997.7 997.4 0.0
04/12:57pm 20.6 10.3 6.5 40 7.1 WNW 50 74 27 40 997.9 997.6 0.0
04/12:56pm 20.8 10.6 7.1 41 7.0 WNW 50 72 27 39 997.9 997.6 0.0
04/12:42pm 21.0 12.0 7.3 41 7.1 WNW 44 70 24 38 997.7 997.4 0.0
04/12:30pm 21.4 12.5 7.6 41 7.2 WNW 44 67 24 36 997.6 997.3 0.0
04/12:21pm 21.6 12.0 8.1 42 7.1 WNW 48 76 26 41 997.6 997.3 0.0
04/12:19pm 22.0 12.3 8.9 43 7.0 WNW 50 76 27 41 997.7 997.4 0.0
04/12:08pm 21.8 11.3 7.2 39 7.6 WNW 52 78 28 42 997.5 997.2 0.0
04/12:07pm 22.0 11.9 7.4 39 7.6 WNW 50 78 27 42 997.5 997.2 0.0
04/12:00pm 22.8 14.9 9.2 42 7.4 NW 41 70 22 38 997.2 996.9 0.0
04/11:45am 22.8 14.7 8.5 40 7.6 WNW 41 65 22 35 997.0 996.7 0.0
04/11:43am 22.9 15.2 8.6 40 7.6 WNW 39 65 21 35 997.1 996.8 0.0
04/11:30am 22.5 15.4 9.6 44 7.0 W 37 56 20 30 997.2 996.9 0.0
04/11:02am 23.3 18.3 11.0 46 6.9 WNW 28 48 15 26 996.9 996.6 0.0
04/11:00am 23.4 18.2 11.5 47 6.8 WNW 30 44 16 24 996.8 996.5 0.0
04/10:30am 22.0 17.3 13.1 57 5.1 NW 30 50 16 27 996.7 996.4 0.0
04/10:25am 22.2 17.9 13.3 57 5.1 NW 28 50 15 27 996.7 996.4 0.0
04/10:00am 22.5 19.7 15.4 64 4.3 NW 24 39 13 21 996.4 996.1 0.0
04/09:30am 21.4 19.6 16.1 72 3.2 NW 20 33 11 18 996.6 996.3 0.0
04/09:00am 19.6 19.4 17.6 88 1.2 NNW 15 24 8 13 996.1 995.8 6.2
04/08:30am 18.2 18.6 18.2 100 0.0 NNW 13 17 7 9 996.2 995.9 6.2
04/08:00am 18.0 19.1 18.0 100 0.0 NW 9 13 5 7 995.3 995.0 6.2
04/07:38am 18.0 18.3 18.0 100 0.0 WNW 13 17 7 9 995.0 994.7 6.2
04/07:30am 18.1 18.1 18.1 100 0.0 WNW 15 20 8 11 995.3 995.0 6.0
04/07:19am 18.1 16.8 18.1 100 0.0 W 22 39 12 21 995.7 995.4 5.6
04/07:17am 18.3 17.6 18.3 100 0.0 WNW 19 39 10 21 996.0 995.7 3.4
04/07:00am 18.3 19.9 18.3 100 0.0 N 7 9 4 5 994.6 994.3 3.0
04/06:30am 18.2 19.4 18.2 100 0.0 N 9 11 5 6 994.6 994.3 3.0
04/06:00am 18.1 20.6 18.1 100 0.0 N 2 7 1 4 994.6 994.3 3.0
04/05:30am 17.9 20.7 17.9 100 0.0 CALM 0 0 0 0 995.0 994.7 3.0
04/05:00am 18.1 21.0 18.1 100 0.0 CALM 0 0 0 0 995.3 995.0 3.0
04/04:30am 18.1 21.0 18.1 100 0.0 CALM 0 0 0 0 995.3 995.0 3.0
04/04:00am 17.8 20.5 17.8 100 0.0 CALM 0 0 0 0 996.0 995.7 3.0
04/03:30am 17.7 19.2 17.7 100 0.0 N 6 9 3 5 996.8 996.5 3.0
04/03:00am 17.6 18.9 17.6 100 0.0 NNW 7 11 4 6 997.3 997.0 3.0
04/02:30am 17.7 19.1 17.7 100 0.0 N 7 9 4 5 997.7 997.4 3.0
04/02:00am 17.8 19.4 17.8 100 0.0 N 6 7 3 4 998.0 997.7 3.0
04/01:31am 18.0 19.7 18.0 100 0.0 NNW 6 7 3 4 998.7 998.5 3.0
04/01:30am 18.0 19.7 18.0 100 0.0 NW 6 7 3 4 998.7 998.5 3.0
04/01:18am 17.8 20.1 17.8 100 0.0 NNW 2 7 1 4 998.9 998.7 3.0
04/01:10am 17.8 20.5 17.8 100 0.0 CALM 0 0 0 0 999.1 998.9 3.0
04/01:04am 17.9 20.7 17.9 100 0.0 CALM 0 0 0 0 999.2 999.0 3.0
04/01:00am 17.9 20.7 17.9 100 0.0 CALM 0 0 0 0 999.3 999.1 3.0
04/12:30am 18.4 21.4 18.4 100 0.0 CALM 0 0 0 0 1000.1 999.9 3.0
04/12:00am 18.1 21.0 18.1 100 0.0 CALM 0 0 0 0 1000.5 1000.3 3.0
 
Date/Time
EST
Temp
°C
App
Temp
°C
Dew
Point
°C
Rel
Hum
%
Delta-T
°C
Wind Press
QNH
hPa
Press
MSL
hPa
Rain since
9am
mm
Dir  Spd
km/h
Gust
km/h
Spd
kts
Gust
kts
03/11:30pm 18.3 21.2 18.3 100 0.0 CALM 0 0 0 0 1001.4 1001.2 3.0
03/11:00pm 18.4 21.4 18.4 100 0.0 CALM 0 0 0 0 1001.7 1001.5 3.0
03/10:58pm 18.4 21.4 18.4 100 0.0 CALM 0 0 0 0 1001.7 1001.5 3.0
03/10:30pm 18.6 20.3 18.6 100 0.0 S 7 7 4 4 1001.9 1001.7 3.0
03/10:09pm 18.6 20.5 18.6 100 0.0 SE 6 9 3 5 1002.3 1002.1 3.0
03/10:00pm 18.6 20.0 18.6 100 0.0 SW 9 11 5 6 1002.6 1002.4 3.0
03/09:59pm 18.6 20.0 18.6 100 0.0 SW 9 11 5 6 1002.7 1002.5 3.0
03/09:30pm 18.7 20.5 18.7 100 0.0 SSE 7 7 4 4 1003.2 1002.9 2.0
03/09:09pm 18.9 20.4 18.9 100 0.0 SE 9 9 5 5 1003.3 1003.0 1.6
03/09:00pm 19.0 20.5 19.0 100 0.0 ESE 9 13 5 7 1003.4 1003.1 1.4
03/08:57pm 19.2 20.5 19.2 100 0.0 E 11 13 6 7 1003.5 1003.2 1.4
03/08:30pm 19.5 20.8 19.2 98 0.2 N 11 19 6 10 1003.8 1003.5 0.8
03/08:17pm 19.8 19.8 19.0 95 0.5 NNE 17 22 9 12 1003.9 1003.6 0.2
03/08:00pm 20.5 21.4 19.3 93 0.8 NNE 13 15 7 8 1003.8 1003.5 0.0
03/07:30pm 20.8 23.9 18.6 87 1.4 CALM 0 0 0 0 1003.4 1003.1 0.0
03/07:00pm 20.9 22.7 18.3 85 1.6 NE 6 11 3 6 1003.5 1003.2 0.0
03/06:30pm 21.3 22.1 18.1 82 2.0 E 11 13 6 7 1003.7 1003.4 0.0
03/06:00pm 22.2 22.2 17.3 74 3.0 E 13 17 7 9 1003.8 1003.5 0.0
03/05:30pm 22.7 22.2 16.9 70 3.6 E 15 19 8 10 1003.9 1003.6 0.0
03/05:00pm 23.6 23.2 16.1 62 4.6 ENE 13 15 7 8 1004.3 1004.0 0.0
03/04:30pm 24.1 24.2 16.4 62 4.7 ENE 11 15 6 8 1004.3 1004.0 0.0
03/04:00pm 24.8 25.0 15.7 57 5.6 NNE 9 15 5 8 1004.5 1004.2 0.0
03/03:30pm 25.4 25.3 16.0 56 5.8 ENE 11 15 6 8 1004.9 1004.6 0.0
03/03:00pm 24.8 24.7 17.0 62 4.9 E 13 19 7 10 1005.5 1005.2 0.0
03/02:30pm 24.6 24.2 14.1 52 6.2 N 9 13 5 7 1006.3 1006.0 0.0
03/02:00pm 24.3 23.9 14.1 53 6.1 NNW 9 17 5 9 1006.4 1006.1 0.0
03/01:30pm 24.9 24.5 15.2 54 5.9 NNW 11 17 6 9 1006.8 1006.6 0.0
03/01:00pm 25.0 24.2 15.0 53 6.0 NW 13 19 7 10 1007.4 1007.2 0.0
03/12:30pm 24.2 23.6 15.7 59 5.2 NW 13 20 7 11 1007.7 1007.5 0.0
03/12:00pm 23.3 22.0 15.9 63 4.5 NW 17 20 9 11 1008.4 1008.2 0.0
03/11:30am 23.1 20.1 14.7 59 5.0 WNW 24 30 13 16 1008.8 1008.6 0.0
03/11:00am 23.1 20.2 14.1 57 5.3 NW 22 32 12 17 1008.9 1008.7 0.0
03/10:30am 22.9 21.1 15.5 63 4.5 NW 19 24 10 13 1009.2 1009.0 0.0
03/10:00am 22.2 20.7 15.3 65 4.1 WNW 17 22 9 12 1009.6 1009.4 0.0
03/09:30am 21.4 20.5 15.9 71 3.3 NW 15 20 8 11 1009.6 1009.4 0.0
03/09:00am 20.9 21.2 16.1 74 2.9 NW 9 13 5 7 1009.5 1009.3 7.6
03/08:30am 19.3 19.9 16.9 86 1.5 NNW 9 13 5 7 1009.5 1009.3 7.6
03/08:00am 16.6 18.8 16.4 99 0.1 CALM 0 0 0 0 1009.1 1008.9 7.6

Latest Capital City Observations: Canberra | Sydney | Melbourne | Brisbane | Adelaide | Perth | Hobart | Darwin

Other formats

Comma delimited format used in spreadsheet applications
http://www.bom.gov.au/fwo/IDN60903/IDN60903.94750.axf

JavaScript Object Notation format (JSON) in row-major order
http://www.bom.gov.au/fwo/IDN60903/IDN60903.94750.json

Data quality

Most of these data are generated automatically and are frequently updated. Quality checks on data are not normally performed. It is possible for incorrect values to appear. Refer to information at About Latest Weather Observations and please check the disclaimer before using these data.